Podhale (bahama Islands) — C6TX9 — position and weather

sailwx.info

Track history (hours):
 
Tides and Currents Weather Stations Pressure Air Temp Water Temp Dewpoint Dewpoint Depression Visibility Wind Speed Wind Dir Waves Ship Positions

Podhale (bahama Islands)

Last reported at 2017-Jun-15 22:55 UTC. Time now 2017-Jun-25 09:02 UTC.
Position N 39°11' W 031°13'.
Warning: this ship's position is 9 days out of date.

Length 190 m; beam 24 m.

Type: Cargo ship. MMSI: 311831000.

Date/timePositionNaut miles runAvg speedWind from/ knotsBaromVisibWave heightAir tempDewpointWater temp
2017-Jun-15 22:55N 39°11' W 031°13'511.4
2017-Jun-15 22:26N 39°13' W 031°08'611.3
2017-Jun-15 21:56N 39°16' W 031°01'511.3
2017-Jun-15 21:30N 39°19' W 030°56'611.1
2017-Jun-15 21:00N 39°21' W 030°49'611.4
2017-Jun-15 20:30N 39°24' W 030°43'611.4
2017-Jun-15 20:00N 39°26' W 030°36'611.3
2017-Jun-15 19:30N 39°29' W 030°30'611.4
2017-Jun-15 19:00N 39°32' W 030°23'611.3
2017-Jun-15 18:30N 39°34' W 030°17'611.6
2017-Jun-15 17:59N 39°37' W 030°10'511.4
2017-Jun-15 17:31N 39°39' W 030°03'611.4
2017-Jun-15 17:00N 39°42' W 029°57'611.1
2017-Jun-15 16:30N 39°45' W 029°50'611.2
2017-Jun-15 16:00N 39°47' W 029°44'611.4
2017-Jun-15 15:30N 39°50' W 029°37'611.4
2017-Jun-15 15:00N 39°53' W 029°31'611.2
2017-Jun-15 14:30N 39°55' W 029°25'1111.4
2017-Jun-15 13:30N 40°01' W 029°12'611.5
2017-Jun-15 13:00N 40°04' W 029°05'611.5
2017-Jun-15 12:30N 40°06' W 028°58'711.4
2017-Jun-15 11:51N 40°10' W 028°50'411.2
2017-Jun-15 11:30N 40°12' W 028°45'611.2
2017-Jun-15 11:00N 40°14' W 028°39'611.4
2017-Jun-15 10:31N 40°17' W 028°32'611.2
2017-Jun-15 09:59N 40°20' W 028°26'611.2
2017-Jun-15 09:28N 40°23' W 028°19'711.2
2017-Jun-15 08:51N 40°26' W 028°11'1710.9
2017-Jun-15 07:19N 40°34' W 027°52'310.5
2017-Jun-15 07:00N 40°36' W 027°48'510.2
2017-Jun-15 06:30N 40°38' W 027°42'510.2
2017-Jun-15 05:59N 40°41' W 027°36'810.5
2017-Jun-15 05:15N 40°44' W 027°27'210.2
2017-Jun-15 05:00N 40°46' W 027°24'510.3
2017-Jun-15 04:30N 40°48' W 027°18'610.0
2017-Jun-15 03:54N 40°51' W 027°11'  
2017-Jun-11 01:21N 48°38' W 006°50'22 9.3
2017-Jun-10 22:58N 48°48' W 006°21'510.2
2017-Jun-10 22:30N 48°51' W 006°14'1010.5
2017-Jun-10 21:33N 48°56' W 006°01'110.6
2017-Jun-10 21:29N 48°56' W 006°00'510.6
2017-Jun-10 21:00N 48°59' W 005°53'510.3
2017-Jun-10 20:30N 49°01' W 005°46'5 9.9
2017-Jun-10 19:58N 49°03' W 005°39'5 9.7
2017-Jun-10 19:30N 49°05' W 005°33'88 7.8
2017-Jun-10 08:10N 49°47' W 003°33'2 9.5
2017-Jun-10 08:00N 49°48' W 003°31'5 9.2
2017-Jun-10 07:30N 49°50' W 003°25'5 9.0
2017-Jun-10 07:00N 49°52' W 003°19'5 9.0
2017-Jun-10 06:29N 49°55' W 003°12'5 9.2
2017-Jun-10 05:57N 49°57' W 003°05'4 9.6
2017-Jun-10 05:30N 49°59' W 002°60'510.2
2017-Jun-10 05:00N 50°01' W 002°52'610.9
2017-Jun-10 04:30N 50°02' W 002°44'711.7
2017-Jun-10 03:56N 50°04' W 002°34'612.5
2017-Jun-10 03:27N 50°05' W 002°25'613.4
2017-Jun-10 03:00N 50°07' W 002°16'713.9
2017-Jun-10 02:30N 50°09' W 002°05'714.4
2017-Jun-10 02:01N 50°11' W 001°55'714.4
2017-Jun-10 01:30N 50°13' W 001°44'713.8
2017-Jun-10 01:00N 50°15' W 001°33'713.2
2017-Jun-10 00:30N 50°16' W 001°23'612.5
2017-Jun-10 00:00N 50°17' W 001°14'611.6
2017-Jun-09 23:30N 50°18' W 001°05'510.4
2017-Jun-09 22:59N 50°20' W 000°57'5 9.6
2017-Jun-09 22:30N 50°22' W 000°50'4 8.8
2017-Jun-09 22:00N 50°24' W 000°44'4 8.4
2017-Jun-09 21:29N 50°25' W 000°37'4 8.4
2017-Jun-09 21:00N 50°26' W 000°31'4 8.6
2017-Jun-09 20:30N 50°27' W 000°25'4 8.9
2017-Jun-09 20:00N 50°28' W 000°18'5 9.2
2017-Jun-09 19:30N 50°29' W 000°11'5 9.8
2017-Jun-09 19:00N 50°30' W 000°04'510.2
2017-Jun-09 18:30N 50°32' E 000°04'510.8
2017-Jun-09 18:00N 50°33' E 000°12'711.4
2017-Jun-09 17:26N 50°35' E 000°22'3211.1
2017-Jun-09 14:36N 50°52' E 001°04'110.0
2017-Jun-09 14:30N 50°53' E 001°05'9 9.5
2017-Jun-09 13:30N 50°59' E 001°16'4 8.7
2017-Jun-09 13:00N 51°02' E 001°21'4 7.1
2017-Jun-09 12:30N 51°06' E 001°22'1 2.2
2017-Jun-09 12:00N 51°07' E 001°23'3 6.8
2017-Jun-09 11:30N 51°07' E 001°29'3 5.2
2017-Jun-09 11:00N 51°08' E 001°33'3 7.0
2017-Jun-09 10:31N 51°10' E 001°37'3 5.6
2017-Jun-09 10:00N 51°11' E 001°41'3 6.5
2017-Jun-09 09:30N 51°13' E 001°45'4 8.1
2017-Jun-09 09:00N 51°17' E 001°48'611.7
2017-Jun-09 08:30N 51°22' E 001°52'612.8
2017-Jun-09 08:00N 51°28' E 001°57'612.9
2017-Jun-09 07:30N 51°33' E 002°04'612.7
2017-Jun-09 07:00N 51°37' E 002°11'356 9.7
2017-Jun-07 18:32N 56°49' E 007°03'1 9.3
2017-Jun-07 18:25N 56°50' E 007°04'4 9.5
2017-Jun-07 17:59N 56°54' E 007°08'5 9.6
2017-Jun-07 17:29N 56°58' E 007°12'102 9.8
2017-Jun-07 07:05N 57°49' E 009°56'110.9
2017-Jun-07 07:00N 57°49' E 009°57'610.8
2017-Jun-07 06:27N 57°49' E 010°09'510.7
2017-Jun-07 06:01N 57°49' E 010°17'510.6
2017-Jun-07 05:31N 57°49' E 010°27'510.7
2017-Jun-07 05:00N 57°49' E 010°38'510.1
2017-Jun-07 04:31N 57°49' E 010°47'611.3
2017-Jun-07 03:59N 57°44' E 010°54'4 8.6
2017-Jun-07 03:31N 57°41' E 010°49'4 8.6
2017-Jun-07 03:00N 57°41' E 010°40'2 3.0
2017-Jun-07 02:30N 57°42' E 010°42'2 3.4
2017-Jun-07 01:58N 57°43' E 010°44'2 4.5
2017-Jun-07 01:31N 57°44' E 010°48'3 5.5
2017-Jun-07 01:00N 57°44' E 010°53'4 7.2
2017-Jun-07 00:30N 57°42' E 010°58'4 7.9
2017-Jun-07 00:00N 57°39' E 011°03'4 8.0
2017-Jun-06 23:31N 57°36' E 011°09'4 8.1
2017-Jun-06 23:00N 57°34' E 011°14'4 8.0
2017-Jun-06 22:30N 57°31' E 011°20'4 7.8
2017-Jun-06 22:00N 57°28' E 011°25'4 8.4
2017-Jun-06 21:30N 57°24' E 011°28'611.4
2017-Jun-06 21:00N 57°19' E 011°32'611.9
2017-Jun-06 20:30N 57°13' E 011°35'612.0
2017-Jun-06 20:01N 57°08' E 011°39'612.0
2017-Jun-06 19:30N 57°02' E 011°43'611.6
2017-Jun-06 18:58N 56°56' E 011°46'10110.6
2017-Jun-06 09:28N 55°19' E 011°03'611.7
2017-Jun-06 09:00N 55°13' E 011°06'5 8.7
2017-Jun-06 08:28N 55°10' E 011°01'511.3
2017-Jun-06 08:00N 55°05' E 010°60'611.7
2017-Jun-06 07:30N 54°59' E 010°59'611.3
2017-Jun-06 07:00N 54°55' E 010°52'612.1
2017-Jun-06 06:30N 54°49' E 010°50'612.0
2017-Jun-06 06:00N 54°43' E 010°47'510.8
2017-Jun-06 05:30N 54°39' E 010°52'611.8
2017-Jun-06 05:00N 54°36' E 011°01'611.6
2017-Jun-06 04:30N 54°36' E 011°10'611.2
2017-Jun-06 04:00N 54°33' E 011°19'2611.8
2017-Jun-06 01:46N 54°26' E 012°03'311.8
2017-Jun-06 01:30N 54°27' E 012°08'510.2
2017-Jun-06 01:00N 54°31' E 012°13'611.1
2017-Jun-06 00:30N 54°36' E 012°16'611.3
2017-Jun-06 00:00N 54°39' E 012°24'611.6
2017-Jun-05 23:30N 54°43' E 012°32'611.8
2017-Jun-05 22:58N 54°46' E 012°42'  
Track history (hours):
 
Tides and Currents Weather Stations Pressure Air Temp Water Temp Dewpoint Dewpoint Depression Visibility Wind Speed Wind Dir Waves Ship Positions

Podhale (bahama Islands)

Last reported at 2017-Jun-15 22:55 UTC. Time now 2017-Jun-25 09:02 UTC.
Position N 39°11' W 031°13'.
Warning: this ship's position is 9 days out of date.

Length 190 m; beam 24 m.

Type: Cargo ship. MMSI: 311831000.

Date/timePositionNaut miles runAvg speedWind from/ knotsBaromVisibWave heightAir tempDewpointWater temp
2017-Jun-15 22:55N 39°11' W 031°13'511.4
2017-Jun-15 22:26N 39°13' W 031°08'611.3
2017-Jun-15 21:56N 39°16' W 031°01'511.3
2017-Jun-15 21:30N 39°19' W 030°56'611.1
2017-Jun-15 21:00N 39°21' W 030°49'611.4
2017-Jun-15 20:30N 39°24' W 030°43'611.4
2017-Jun-15 20:00N 39°26' W 030°36'611.3
2017-Jun-15 19:30N 39°29' W 030°30'611.4
2017-Jun-15 19:00N 39°32' W 030°23'611.3
2017-Jun-15 18:30N 39°34' W 030°17'611.6
2017-Jun-15 17:59N 39°37' W 030°10'511.4
2017-Jun-15 17:31N 39°39' W 030°03'611.4
2017-Jun-15 17:00N 39°42' W 029°57'611.1
2017-Jun-15 16:30N 39°45' W 029°50'611.2
2017-Jun-15 16:00N 39°47' W 029°44'611.4
2017-Jun-15 15:30N 39°50' W 029°37'611.4
2017-Jun-15 15:00N 39°53' W 029°31'611.2
2017-Jun-15 14:30N 39°55' W 029°25'1111.4
2017-Jun-15 13:30N 40°01' W 029°12'611.5
2017-Jun-15 13:00N 40°04' W 029°05'611.5
2017-Jun-15 12:30N 40°06' W 028°58'711.4
2017-Jun-15 11:51N 40°10' W 028°50'411.2
2017-Jun-15 11:30N 40°12' W 028°45'611.2
2017-Jun-15 11:00N 40°14' W 028°39'611.4
2017-Jun-15 10:31N 40°17' W 028°32'611.2
2017-Jun-15 09:59N 40°20' W 028°26'611.2
2017-Jun-15 09:28N 40°23' W 028°19'711.2
2017-Jun-15 08:51N 40°26' W 028°11'1710.9
2017-Jun-15 07:19N 40°34' W 027°52'310.5
2017-Jun-15 07:00N 40°36' W 027°48'510.2
2017-Jun-15 06:30N 40°38' W 027°42'510.2
2017-Jun-15 05:59N 40°41' W 027°36'810.5
2017-Jun-15 05:15N 40°44' W 027°27'210.2
2017-Jun-15 05:00N 40°46' W 027°24'510.3
2017-Jun-15 04:30N 40°48' W 027°18'610.0
2017-Jun-15 03:54N 40°51' W 027°11'  
2017-Jun-11 01:21N 48°38' W 006°50'22 9.3
2017-Jun-10 22:58N 48°48' W 006°21'510.2
2017-Jun-10 22:30N 48°51' W 006°14'1010.5
2017-Jun-10 21:33N 48°56' W 006°01'110.6
2017-Jun-10 21:29N 48°56' W 006°00'510.6
2017-Jun-10 21:00N 48°59' W 005°53'510.3
2017-Jun-10 20:30N 49°01' W 005°46'5 9.9
2017-Jun-10 19:58N 49°03' W 005°39'5 9.7
2017-Jun-10 19:30N 49°05' W 005°33'88 7.8
2017-Jun-10 08:10N 49°47' W 003°33'2 9.5
2017-Jun-10 08:00N 49°48' W 003°31'5 9.2
2017-Jun-10 07:30N 49°50' W 003°25'5 9.0
2017-Jun-10 07:00N 49°52' W 003°19'5 9.0
2017-Jun-10 06:29N 49°55' W 003°12'5 9.2
2017-Jun-10 05:57N 49°57' W 003°05'4 9.6
2017-Jun-10 05:30N 49°59' W 002°60'510.2
2017-Jun-10 05:00N 50°01' W 002°52'610.9
2017-Jun-10 04:30N 50°02' W 002°44'711.7
2017-Jun-10 03:56N 50°04' W 002°34'612.5
2017-Jun-10 03:27N 50°05' W 002°25'613.4
2017-Jun-10 03:00N 50°07' W 002°16'713.9
2017-Jun-10 02:30N 50°09' W 002°05'714.4
2017-Jun-10 02:01N 50°11' W 001°55'714.4
2017-Jun-10 01:30N 50°13' W 001°44'713.8
2017-Jun-10 01:00N 50°15' W 001°33'713.2
2017-Jun-10 00:30N 50°16' W 001°23'612.5
2017-Jun-10 00:00N 50°17' W 001°14'611.6
2017-Jun-09 23:30N 50°18' W 001°05'510.4
2017-Jun-09 22:59N 50°20' W 000°57'5 9.6
2017-Jun-09 22:30N 50°22' W 000°50'4 8.8
2017-Jun-09 22:00N 50°24' W 000°44'4 8.4
2017-Jun-09 21:29N 50°25' W 000°37'4 8.4
2017-Jun-09 21:00N 50°26' W 000°31'4 8.6
2017-Jun-09 20:30N 50°27' W 000°25'4 8.9
2017-Jun-09 20:00N 50°28' W 000°18'5 9.2
2017-Jun-09 19:30N 50°29' W 000°11'5 9.8
2017-Jun-09 19:00N 50°30' W 000°04'510.2
2017-Jun-09 18:30N 50°32' E 000°04'510.8
2017-Jun-09 18:00N 50°33' E 000°12'711.4
2017-Jun-09 17:26N 50°35' E 000°22'3211.1
2017-Jun-09 14:36N 50°52' E 001°04'110.0
2017-Jun-09 14:30N 50°53' E 001°05'9 9.5
2017-Jun-09 13:30N 50°59' E 001°16'4 8.7
2017-Jun-09 13:00N 51°02' E 001°21'4 7.1
2017-Jun-09 12:30N 51°06' E 001°22'1 2.2
2017-Jun-09 12:00N 51°07' E 001°23'3 6.8
2017-Jun-09 11:30N 51°07' E 001°29'3 5.2
2017-Jun-09 11:00N 51°08' E 001°33'3 7.0
2017-Jun-09 10:31N 51°10' E 001°37'3 5.6
2017-Jun-09 10:00N 51°11' E 001°41'3 6.5
2017-Jun-09 09:30N 51°13' E 001°45'4 8.1
2017-Jun-09 09:00N 51°17' E 001°48'611.7
2017-Jun-09 08:30N 51°22' E 001°52'612.8
2017-Jun-09 08:00N 51°28' E 001°57'612.9
2017-Jun-09 07:30N 51°33' E 002°04'612.7
2017-Jun-09 07:00N 51°37' E 002°11'356 9.7
2017-Jun-07 18:32N 56°49' E 007°03'1 9.3
2017-Jun-07 18:25N 56°50' E 007°04'4 9.5
2017-Jun-07 17:59N 56°54' E 007°08'5 9.6
2017-Jun-07 17:29N 56°58' E 007°12'102 9.8
2017-Jun-07 07:05N 57°49' E 009°56'110.9
2017-Jun-07 07:00N 57°49' E 009°57'610.8
2017-Jun-07 06:27N 57°49' E 010°09'510.7
2017-Jun-07 06:01N 57°49' E 010°17'510.6
2017-Jun-07 05:31N 57°49' E 010°27'510.7
2017-Jun-07 05:00N 57°49' E 010°38'510.1
2017-Jun-07 04:31N 57°49' E 010°47'611.3
2017-Jun-07 03:59N 57°44' E 010°54'4 8.6
2017-Jun-07 03:31N 57°41' E 010°49'4 8.6
2017-Jun-07 03:00N 57°41' E 010°40'2 3.0
2017-Jun-07 02:30N 57°42' E 010°42'2 3.4
2017-Jun-07 01:58N 57°43' E 010°44'2 4.5
2017-Jun-07 01:31N 57°44' E 010°48'3 5.5
2017-Jun-07 01:00N 57°44' E 010°53'4 7.2
2017-Jun-07 00:30N 57°42' E 010°58'4 7.9
2017-Jun-07 00:00N 57°39' E 011°03'4 8.0
2017-Jun-06 23:31N 57°36' E 011°09'4 8.1
2017-Jun-06 23:00N 57°34' E 011°14'4 8.0
2017-Jun-06 22:30N 57°31' E 011°20'4 7.8
2017-Jun-06 22:00N 57°28' E 011°25'4 8.4
2017-Jun-06 21:30N 57°24' E 011°28'611.4
2017-Jun-06 21:00N 57°19' E 011°32'611.9
2017-Jun-06 20:30N 57°13' E 011°35'612.0
2017-Jun-06 20:01N 57°08' E 011°39'612.0
2017-Jun-06 19:30N 57°02' E 011°43'611.6
2017-Jun-06 18:58N 56°56' E 011°46'10110.6
2017-Jun-06 09:28N 55°19' E 011°03'611.7
2017-Jun-06 09:00N 55°13' E 011°06'5 8.7
2017-Jun-06 08:28N 55°10' E 011°01'511.3
2017-Jun-06 08:00N 55°05' E 010°60'611.7
2017-Jun-06 07:30N 54°59' E 010°59'611.3
2017-Jun-06 07:00N 54°55' E 010°52'612.1
2017-Jun-06 06:30N 54°49' E 010°50'612.0
2017-Jun-06 06:00N 54°43' E 010°47'510.8
2017-Jun-06 05:30N 54°39' E 010°52'611.8
2017-Jun-06 05:00N 54°36' E 011°01'611.6
2017-Jun-06 04:30N 54°36' E 011°10'611.2
2017-Jun-06 04:00N 54°33' E 011°19'2611.8
2017-Jun-06 01:46N 54°26' E 012°03'311.8
2017-Jun-06 01:30N 54°27' E 012°08'510.2
2017-Jun-06 01:00N 54°31' E 012°13'611.1
2017-Jun-06 00:30N 54°36' E 012°16'611.3
2017-Jun-06 00:00N 54°39' E 012°24'611.6
2017-Jun-05 23:30N 54°43' E 012°32'611.8
2017-Jun-05 22:58N 54°46' E 012°42'  

Dump ship's entire track history